Fontana, CA (92336)

9:46 AM PDT on July 26, 2016 (GMT -0700)
California Landings | | Change Station

Elev 1467 ft 34.13 °N, 117.46 °W | Updated 7 seconds ago

Partly Cloudy
Partly Cloudy
93.9 °F
Feels Like 94 °F
N
0.0
Wind Variable Wind from ENE

Today
High -- | Low -- °F
--% Chance of Precip.
Yesterday
High -- | Low -- °F
Precip. -- in
Pressure 29.86 in
Visibility 10.0 miles
Clouds Few 13000 ft
Heat Index 94 °F
Dew Point 60 °F
Humidity 32%
Rainfall 0.00 in
Snow Depth Not available.
5:57 AM 7:55 PM
Waning Gibbous, 53% visible
METAR KONT 261553Z 25003KT 10SM FEW130 27/16 A2991 RMK AO2 SLP110 T02720156
Pressure 29.86 in
Visibility 10.0 miles
Clouds Few 13000 ft
Heat Index 94 °F
Dew Point 60 °F
Humidity 32%
Rainfall 0.00 in
Snow Depth Not available.
5:57 AM 7:55 PM
Waning Gibbous, 53% visible
METAR KONT 261553Z 25003KT 10SM FEW130 27/16 A2991 RMK AO2 SLP110 T02720156

10-Day Weather Forecast

Almanac

Astronomy

Jul. 26, 2016 Rise Set
Actual Time
Civil Twilight
Nautical Twilight
Astronomical Twilight
Moon
Length of Visible Light
Length of Day
Tomorrow will be .
, % of the Moon is Illuminated

Today's Extremes

State Highs State Lows

Community

WunderPhotos

Upload Photos

1,927,633 photos uploaded!

WunderBlog® & News

Nearby

Air Quality

  Air Quality AQ Index Pollutant
Not available.

Snow Depth

Station Depth Elevation

Earthquake Activity

City Distance Mag. Time & Date
Minimum magnitude displayed is 2.5.

Coastal Water Temperatures

Place Temperature

Stations

Nearby Weather Stations

Station Location Temp. Windchill Dew Point Humidity Wind Precip. Elev Updated Type
                   

Watches & Warnings

There are currently no watches in effect.